ETH3732 HAAB-OOMS
Flight info
| Callsign | ETH3732 |
|---|---|
| Flight time | 3h 19m |
| Altitude | 39000 |
| Route | NIDEG1A NIDEG UB535 TORBA T701 ULALI L702 NODMA B400 DAXAM Y414 MCT |
| Aircraft | B77L/H-SDE1E2E3FGHIJ2J3J4J5M1RWXY/LB1D1 |
Departure
| Time | 2026-05-08 17:53 |
|---|---|
| Airport | Addis Ababa Bole International Airport (HAAB) |
Arrival
| Time | 2026-05-08 21:12 |
|---|---|
| Airport | Muscat International Airport (OOMS) |
| Time | Latitude | Longitude | Altitude | Speed | Heading |
|---|---|---|---|---|---|
| 2026-05-08 17:45 | 8.97780 | 38.78406 | 7634 ft | 4 kts | 240° |
| 2026-05-08 17:45 | 8.97795 | 38.78428 | 7632 ft | 4 kts | 238° |
| 2026-05-08 17:45 | 8.97806 | 38.78450 | 7630 ft | 2 kts | 254° |
| 2026-05-08 17:46 | 8.97808 | 38.78455 | 7628 ft | 1 kts | 254° |
| 2026-05-08 17:48 | 8.97804 | 38.78440 | 7630 ft | 10 kts | 253° |
| 2026-05-08 17:48 | 8.97773 | 38.78335 | 7625 ft | 16 kts | 253° |
| 2026-05-08 17:49 | 8.97735 | 38.78226 | 7625 ft | 16 kts | 234° |
| 2026-05-08 17:49 | 8.97633 | 38.78202 | 7625 ft | 17 kts | 166° |
| 2026-05-08 17:49 | 8.97546 | 38.78224 | 7626 ft | 11 kts | 166° |
| 2026-05-08 17:49 | 8.97469 | 38.78245 | 7626 ft | 11 kts | 163° |
| 2026-05-08 17:50 | 8.97393 | 38.78266 | 7626 ft | 11 kts | 165° |
| 2026-05-08 17:50 | 8.97338 | 38.78297 | 7625 ft | 5 kts | 144° |
| 2026-05-08 17:50 | 8.97328 | 38.78305 | 7625 ft | 1 kts | 142° |
| 2026-05-08 17:51 | 8.97327 | 38.78305 | 7625 ft | 0 kts | 142° |
| 2026-05-08 17:51 | 8.97290 | 38.78334 | 7624 ft | 17 kts | 142° |
| 2026-05-08 17:52 | 8.97256 | 38.78441 | 7624 ft | 15 kts | 76° |
| 2026-05-08 17:52 | 8.97261 | 38.78459 | 7624 ft | 0 kts | 73° |
| 2026-05-08 17:52 | 8.97331 | 38.78698 | 7627 ft | 78 kts | 73° |
| 2026-05-08 17:53 | 8.97571 | 38.79514 | 7623 ft | 158 kts | 73° |
| 2026-05-08 17:53 | 8.97935 | 38.80757 | 7819 ft | 198 kts | 74° |
| 2026-05-08 17:53 | 8.98271 | 38.82095 | 8695 ft | 187 kts | 79° |
| 2026-05-08 17:53 | 8.98560 | 38.83309 | 9853 ft | 168 kts | 77° |
| 2026-05-08 17:54 | 8.98846 | 38.84460 | 10538 ft | 178 kts | 77° |
| 2026-05-08 17:54 | 8.99188 | 38.85758 | 10737 ft | 203 kts | 68° |
| 2026-05-08 17:54 | 8.99994 | 38.87032 | 10942 ft | 234 kts | 54° |
| 2026-05-08 17:54 | 9.01055 | 38.88453 | 11163 ft | 265 kts | 54° |
| 2026-05-08 17:55 | 9.02217 | 38.90031 | 11384 ft | 298 kts | 54° |
| 2026-05-08 17:55 | 9.03501 | 38.91800 | 11651 ft | 330 kts | 54° |
| 2026-05-08 17:55 | 9.04922 | 38.93782 | 11898 ft | 358 kts | 54° |
| 2026-05-08 17:55 | 9.06403 | 38.95870 | 12687 ft | 369 kts | 54° |
| 2026-05-08 17:56 | 9.07902 | 38.97996 | 13551 ft | 378 kts | 54° |
| 2026-05-08 17:56 | 9.09446 | 39.00196 | 14404 ft | 385 kts | 53° |
| 2026-05-08 17:56 | 9.11002 | 39.02419 | 15332 ft | 388 kts | 54° |
| 2026-05-08 17:56 | 9.12559 | 39.04648 | 16110 ft | 395 kts | 54° |
| 2026-05-08 17:57 | 9.14165 | 39.06948 | 16932 ft | 400 kts | 54° |
| 2026-05-08 17:57 | 9.15779 | 39.09261 | 17817 ft | 404 kts | 54° |
| 2026-05-08 17:57 | 9.17402 | 39.11587 | 18558 ft | 411 kts | 54° |
| 2026-05-08 17:57 | 9.19077 | 39.13989 | 19229 ft | 417 kts | 54° |
| 2026-05-08 17:58 | 9.20744 | 39.16378 | 19932 ft | 421 kts | 54° |
| 2026-05-08 17:58 | 9.22453 | 39.18828 | 20588 ft | 427 kts | 54° |
| 2026-05-08 17:58 | 9.24167 | 39.21300 | 21134 ft | 435 kts | 56° |
| 2026-05-08 17:58 | 9.25750 | 39.23928 | 21811 ft | 438 kts | 61° |
| 2026-05-08 17:59 | 9.27252 | 39.26646 | 22381 ft | 445 kts | 62° |
| 2026-05-08 17:59 | 9.28751 | 39.29393 | 22931 ft | 451 kts | 62° |
| 2026-05-08 17:59 | 9.30287 | 39.32212 | 23526 ft | 456 kts | 62° |
| 2026-05-08 17:59 | 9.31817 | 39.35012 | 24067 ft | 461 kts | 62° |
| 2026-05-08 18:00 | 9.33389 | 39.37878 | 24551 ft | 465 kts | 62° |
| 2026-05-08 18:00 | 9.36554 | 39.43624 | 25574 ft | 471 kts | 62° |
| 2026-05-08 18:00 | 9.38148 | 39.46513 | 26053 ft | 475 kts | 62° |
| 2026-05-08 18:01 | 9.39776 | 39.49463 | 26518 ft | 479 kts | 62° |
| 2026-05-08 18:01 | 9.41394 | 39.52395 | 26975 ft | 482 kts | 62° |
| 2026-05-08 18:01 | 9.43046 | 39.55392 | 27418 ft | 486 kts | 62° |
| 2026-05-08 18:01 | 9.44703 | 39.58399 | 27891 ft | 489 kts | 62° |
| 2026-05-08 18:02 | 9.46354 | 39.61395 | 28336 ft | 493 kts | 62° |
| 2026-05-08 18:02 | 9.47470 | 39.63420 | 28644 ft | 495 kts | 62° |
| 2026-05-08 18:02 | 9.49712 | 39.67492 | 29187 ft | 500 kts | 62° |
| 2026-05-08 18:02 | 9.51423 | 39.70600 | 29635 ft | 503 kts | 62° |
| 2026-05-08 18:03 | 9.53114 | 39.73671 | 30013 ft | 506 kts | 62° |
| 2026-05-08 18:03 | 9.54839 | 39.76806 | 30347 ft | 509 kts | 62° |
| 2026-05-08 18:03 | 9.56577 | 39.79963 | 30713 ft | 510 kts | 62° |
| 2026-05-08 18:03 | 9.58288 | 39.83073 | 31139 ft | 510 kts | 62° |
| 2026-05-08 18:04 | 9.60024 | 39.86230 | 31589 ft | 510 kts | 62° |
| 2026-05-08 18:04 | 9.61734 | 39.89340 | 32053 ft | 509 kts | 62° |
| 2026-05-08 18:04 | 9.63463 | 39.92485 | 32505 ft | 509 kts | 62° |
| 2026-05-08 18:04 | 9.65193 | 39.95633 | 32965 ft | 509 kts | 62° |
| 2026-05-08 18:05 | 9.66899 | 39.98740 | 33411 ft | 509 kts | 62° |
| 2026-05-08 18:05 | 9.68629 | 40.01891 | 33898 ft | 508 kts | 62° |
| 2026-05-08 18:05 | 9.70332 | 40.04993 | 34311 ft | 508 kts | 62° |
| 2026-05-08 18:05 | 9.72055 | 40.08132 | 34756 ft | 506 kts | 62° |
| 2026-05-08 18:06 | 9.73770 | 40.11258 | 35212 ft | 505 kts | 62° |
| 2026-05-08 18:06 | 9.75458 | 40.14335 | 35634 ft | 504 kts | 62° |
| 2026-05-08 18:06 | 9.77171 | 40.17459 | 36049 ft | 503 kts | 62° |
| 2026-05-08 18:06 | 9.78850 | 40.20523 | 36467 ft | 502 kts | 62° |
| 2026-05-08 18:07 | 9.80546 | 40.23618 | 36877 ft | 501 kts | 62° |
| 2026-05-08 18:07 | 9.82248 | 40.26724 | 37300 ft | 500 kts | 62° |
| 2026-05-08 18:07 | 9.83987 | 40.29747 | 37684 ft | 499 kts | 57° |
| 2026-05-08 18:07 | 9.85957 | 40.32665 | 38055 ft | 498 kts | 55° |
| 2026-05-08 18:08 | 9.87954 | 40.35501 | 38428 ft | 498 kts | 54° |
| 2026-05-08 18:08 | 9.89988 | 40.38354 | 38749 ft | 497 kts | 54° |
| 2026-05-08 18:08 | 9.94058 | 40.44076 | 38870 ft | 503 kts | 54° |
| 2026-05-08 18:09 | 9.98123 | 40.49856 | 38862 ft | 497 kts | 55° |
| 2026-05-08 18:09 | 10.02077 | 40.55513 | 38855 ft | 494 kts | 55° |
| 2026-05-08 18:10 | 10.06053 | 40.61209 | 38846 ft | 493 kts | 55° |
| 2026-05-08 18:10 | 10.10006 | 40.66871 | 38839 ft | 493 kts | 55° |
| 2026-05-08 18:11 | 10.13963 | 40.72540 | 38828 ft | 494 kts | 55° |
| 2026-05-08 18:11 | 10.17963 | 40.78273 | 38827 ft | 495 kts | 55° |
| 2026-05-08 18:12 | 10.21944 | 40.83981 | 38832 ft | 497 kts | 55° |
| 2026-05-08 18:12 | 10.25935 | 40.89707 | 38828 ft | 498 kts | 55° |
| 2026-05-08 18:13 | 10.29943 | 40.95459 | 38830 ft | 499 kts | 55° |
| 2026-05-08 18:13 | 10.33962 | 41.01231 | 38832 ft | 500 kts | 56° |
| 2026-05-08 18:14 | 10.37960 | 41.06976 | 38829 ft | 501 kts | 56° |
| 2026-05-08 18:14 | 10.41968 | 41.12738 | 38831 ft | 501 kts | 56° |
| 2026-05-08 18:15 | 10.46012 | 41.18555 | 38836 ft | 502 kts | 56° |
| 2026-05-08 18:15 | 10.50030 | 41.24337 | 38828 ft | 501 kts | 56° |
| 2026-05-08 18:16 | 10.54025 | 41.30090 | 38825 ft | 496 kts | 56° |
| 2026-05-08 18:16 | 10.57985 | 41.35795 | 38826 ft | 491 kts | 56° |
| 2026-05-08 18:17 | 10.61815 | 41.41500 | 38834 ft | 488 kts | 60° |
| 2026-05-08 18:17 | 10.65251 | 41.47520 | 38849 ft | 495 kts | 61° |
| 2026-05-08 18:18 | 10.68668 | 41.53628 | 38848 ft | 502 kts | 61° |
| 2026-05-08 18:18 | 10.72155 | 41.59816 | 38847 ft | 506 kts | 61° |
| 2026-05-08 18:19 | 10.75661 | 41.66001 | 38835 ft | 504 kts | 61° |
| 2026-05-08 18:19 | 10.79167 | 41.72180 | 38843 ft | 506 kts | 61° |
| 2026-05-08 18:20 | 10.82689 | 41.78394 | 38831 ft | 505 kts | 61° |
| 2026-05-08 18:20 | 10.86192 | 41.84582 | 38845 ft | 505 kts | 61° |
| 2026-05-08 18:21 | 10.89703 | 41.90789 | 38840 ft | 505 kts | 61° |
| 2026-05-08 18:21 | 10.93180 | 41.96937 | 38845 ft | 504 kts | 61° |
| 2026-05-08 18:22 | 10.96702 | 42.03169 | 38852 ft | 507 kts | 61° |
| 2026-05-08 18:22 | 11.00197 | 42.09359 | 38841 ft | 503 kts | 61° |
| 2026-05-08 18:23 | 11.03662 | 42.15497 | 38846 ft | 499 kts | 61° |
| 2026-05-08 18:23 | 11.07064 | 42.21626 | 38845 ft | 496 kts | 62° |
| 2026-05-08 18:24 | 11.10416 | 42.27775 | 38857 ft | 495 kts | 62° |
| 2026-05-08 18:24 | 11.13752 | 42.33896 | 38863 ft | 494 kts | 62° |
| 2026-05-08 18:25 | 11.17075 | 42.39978 | 38863 ft | 491 kts | 62° |
| 2026-05-08 18:25 | 11.20398 | 42.46056 | 38872 ft | 490 kts | 62° |
| 2026-05-08 18:26 | 11.23712 | 42.52121 | 38881 ft | 491 kts | 62° |
| 2026-05-08 18:26 | 11.27024 | 42.58187 | 38883 ft | 491 kts | 62° |
| 2026-05-08 18:27 | 11.29237 | 42.62243 | 38890 ft | 494 kts | 62° |
| 2026-05-08 18:27 | 11.33165 | 42.69448 | 38890 ft | 500 kts | 62° |
| 2026-05-08 18:28 | 11.36548 | 42.75655 | 38891 ft | 502 kts | 62° |
| 2026-05-08 18:28 | 11.39935 | 42.81873 | 38887 ft | 502 kts | 62° |
| 2026-05-08 18:29 | 11.43315 | 42.88082 | 38878 ft | 500 kts | 62° |
| 2026-05-08 18:29 | 11.46662 | 42.94233 | 38875 ft | 498 kts | 62° |
| 2026-05-08 18:30 | 11.50022 | 43.00416 | 38872 ft | 496 kts | 62° |
| 2026-05-08 18:30 | 11.53355 | 43.06551 | 38866 ft | 494 kts | 62° |
| 2026-05-08 18:31 | 11.56876 | 43.12531 | 38865 ft | 493 kts | 57° |
| 2026-05-08 18:31 | 11.60720 | 43.18300 | 38855 ft | 493 kts | 56° |
| 2026-05-08 18:32 | 11.64594 | 43.24084 | 38857 ft | 493 kts | 56° |
| 2026-05-08 18:32 | 11.68426 | 43.29868 | 38852 ft | 494 kts | 57° |
| 2026-05-08 18:33 | 11.72275 | 43.35708 | 38854 ft | 495 kts | 57° |
| 2026-05-08 18:33 | 11.76104 | 43.41523 | 38860 ft | 496 kts | 57° |
| 2026-05-08 18:34 | 11.79942 | 43.47352 | 38850 ft | 496 kts | 57° |
| 2026-05-08 18:34 | 11.83818 | 43.53240 | 38851 ft | 497 kts | 57° |
| 2026-05-08 18:35 | 11.87645 | 43.59056 | 38845 ft | 497 kts | 57° |
| 2026-05-08 18:35 | 11.91570 | 43.64915 | 38847 ft | 497 kts | 56° |
| 2026-05-08 18:36 | 11.95506 | 43.70689 | 38845 ft | 497 kts | 56° |
| 2026-05-08 18:36 | 11.99442 | 43.76481 | 38845 ft | 497 kts | 56° |
| 2026-05-08 18:37 | 12.03381 | 43.82301 | 38845 ft | 496 kts | 56° |
| 2026-05-08 18:37 | 12.07304 | 43.88106 | 38838 ft | 496 kts | 56° |
| 2026-05-08 18:38 | 12.11199 | 43.93871 | 38836 ft | 495 kts | 56° |
| 2026-05-08 18:38 | 12.15069 | 43.99668 | 38836 ft | 494 kts | 60° |
| 2026-05-08 18:39 | 12.17653 | 44.06127 | 38834 ft | 491 kts | 77° |
| 2026-05-08 18:39 | 12.18513 | 44.13024 | 38847 ft | 488 kts | 88° |
| 2026-05-08 18:40 | 12.18894 | 44.19964 | 38834 ft | 488 kts | 88° |
| 2026-05-08 18:40 | 12.19291 | 44.26864 | 38840 ft | 489 kts | 88° |
| 2026-05-08 18:41 | 12.19740 | 44.33821 | 38837 ft | 489 kts | 87° |
| 2026-05-08 18:41 | 12.20206 | 44.40740 | 38837 ft | 489 kts | 87° |
| 2026-05-08 18:42 | 12.20675 | 44.47709 | 38837 ft | 489 kts | 87° |
| 2026-05-08 18:42 | 12.21134 | 44.54604 | 38842 ft | 489 kts | 87° |
| 2026-05-08 18:43 | 12.21594 | 44.61549 | 38840 ft | 489 kts | 87° |
| 2026-05-08 18:43 | 12.22052 | 44.68494 | 38839 ft | 489 kts | 87° |
| 2026-05-08 18:44 | 12.22505 | 44.75399 | 38836 ft | 488 kts | 87° |
| 2026-05-08 18:44 | 12.22958 | 44.82327 | 38845 ft | 488 kts | 87° |
| 2026-05-08 18:45 | 12.23409 | 44.89250 | 38837 ft | 488 kts | 87° |
| 2026-05-08 18:45 | 12.23860 | 44.96184 | 38836 ft | 488 kts | 87° |
| 2026-05-08 18:46 | 12.24308 | 45.03116 | 38840 ft | 488 kts | 87° |
| 2026-05-08 18:46 | 12.24753 | 45.10028 | 38842 ft | 488 kts | 87° |
| 2026-05-08 18:47 | 12.25197 | 45.16960 | 38847 ft | 488 kts | 87° |
| 2026-05-08 18:47 | 12.25640 | 45.23884 | 38847 ft | 489 kts | 87° |
| 2026-05-08 18:48 | 12.26084 | 45.30849 | 38842 ft | 489 kts | 87° |
| 2026-05-08 18:48 | 12.26522 | 45.37759 | 38846 ft | 490 kts | 87° |
| 2026-05-08 18:49 | 12.26981 | 45.44708 | 38848 ft | 491 kts | 87° |
| 2026-05-08 18:49 | 12.27468 | 45.51679 | 38849 ft | 491 kts | 87° |
| 2026-05-08 18:50 | 12.27956 | 45.58669 | 38853 ft | 492 kts | 87° |
| 2026-05-08 18:50 | 12.28433 | 45.65606 | 38854 ft | 492 kts | 87° |
| 2026-05-08 18:51 | 12.28909 | 45.72584 | 38852 ft | 492 kts | 87° |
| 2026-05-08 18:51 | 12.29384 | 45.79569 | 38851 ft | 491 kts | 87° |
| 2026-05-08 18:52 | 12.29855 | 45.86528 | 38854 ft | 491 kts | 87° |
| 2026-05-08 18:52 | 12.30324 | 45.93489 | 38861 ft | 490 kts | 87° |
| 2026-05-08 18:53 | 12.30790 | 46.00410 | 38862 ft | 490 kts | 87° |
| 2026-05-08 18:53 | 12.31255 | 46.07366 | 38864 ft | 489 kts | 87° |
| 2026-05-08 18:54 | 12.31718 | 46.14297 | 38863 ft | 489 kts | 87° |
| 2026-05-08 18:54 | 12.32180 | 46.21241 | 38861 ft | 489 kts | 87° |
| 2026-05-08 18:55 | 12.32869 | 46.31659 | 38867 ft | 488 kts | 87° |
| 2026-05-08 18:56 | 12.33323 | 46.38565 | 38869 ft | 488 kts | 87° |
| 2026-05-08 18:56 | 12.33778 | 46.45503 | 38863 ft | 489 kts | 87° |
| 2026-05-08 18:57 | 12.34232 | 46.52450 | 38868 ft | 489 kts | 87° |
| 2026-05-08 18:57 | 12.34683 | 46.59389 | 38866 ft | 489 kts | 87° |
| 2026-05-08 18:58 | 12.35132 | 46.66308 | 38863 ft | 489 kts | 87° |
| 2026-05-08 18:58 | 12.35579 | 46.73240 | 38868 ft | 489 kts | 87° |
| 2026-05-08 18:59 | 12.36026 | 46.80189 | 38867 ft | 489 kts | 87° |
| 2026-05-08 18:59 | 12.36471 | 46.87131 | 38864 ft | 489 kts | 87° |
| 2026-05-08 19:00 | 12.36840 | 46.92925 | 38870 ft | 489 kts | 87° |
| 2026-05-08 19:00 | 12.37352 | 47.00983 | 38869 ft | 489 kts | 87° |
| 2026-05-08 19:01 | 12.37792 | 47.07913 | 38870 ft | 489 kts | 87° |
| 2026-05-08 19:01 | 12.38238 | 47.14848 | 38869 ft | 489 kts | 87° |
| 2026-05-08 19:02 | 12.38683 | 47.21780 | 38868 ft | 489 kts | 87° |
| 2026-05-08 19:02 | 12.39126 | 47.28731 | 38869 ft | 489 kts | 88° |
| 2026-05-08 19:03 | 12.39567 | 47.35693 | 38865 ft | 488 kts | 88° |
| 2026-05-08 19:03 | 12.40003 | 47.42587 | 38869 ft | 488 kts | 88° |
| 2026-05-08 19:04 | 12.41226 | 47.49410 | 38880 ft | 489 kts | 73° |
| 2026-05-08 19:04 | 12.43957 | 47.55760 | 38884 ft | 491 kts | 62° |
| 2026-05-08 19:05 | 12.47338 | 47.61870 | 38883 ft | 491 kts | 61° |
| 2026-05-08 19:05 | 12.50719 | 47.67934 | 38875 ft | 491 kts | 62° |
| 2026-05-08 19:06 | 12.54054 | 47.74019 | 38879 ft | 491 kts | 62° |
| 2026-05-08 19:06 | 12.57367 | 47.80127 | 38875 ft | 490 kts | 62° |
| 2026-05-08 19:07 | 12.60677 | 47.86243 | 38878 ft | 490 kts | 62° |
| 2026-05-08 19:07 | 12.63973 | 47.92333 | 38878 ft | 490 kts | 62° |
| 2026-05-08 19:08 | 12.67259 | 47.98405 | 38881 ft | 489 kts | 62° |
| 2026-05-08 19:08 | 12.70556 | 48.04501 | 38880 ft | 489 kts | 62° |
| 2026-05-08 19:09 | 12.73856 | 48.10608 | 38877 ft | 490 kts | 62° |
| 2026-05-08 19:09 | 12.77152 | 48.16711 | 38881 ft | 490 kts | 62° |
| 2026-05-08 19:10 | 12.80453 | 48.22827 | 38880 ft | 490 kts | 63° |
| 2026-05-08 19:10 | 12.83734 | 48.28909 | 38883 ft | 490 kts | 63° |
| 2026-05-08 19:11 | 12.87050 | 48.35062 | 38880 ft | 490 kts | 63° |
| 2026-05-08 19:11 | 12.89786 | 48.40142 | 38882 ft | 491 kts | 63° |
| 2026-05-08 19:12 | 12.93076 | 48.46253 | 38883 ft | 491 kts | 63° |
| 2026-05-08 19:12 | 12.96391 | 48.52416 | 38886 ft | 491 kts | 63° |
| 2026-05-08 19:13 | 12.99680 | 48.58536 | 38886 ft | 491 kts | 63° |
| 2026-05-08 19:13 | 13.02982 | 48.64682 | 38884 ft | 491 kts | 63° |
| 2026-05-08 19:14 | 13.06259 | 48.70788 | 38885 ft | 491 kts | 63° |
| 2026-05-08 19:14 | 13.09561 | 48.76943 | 38883 ft | 492 kts | 63° |
| 2026-05-08 19:15 | 13.12851 | 48.83080 | 38887 ft | 492 kts | 63° |
| 2026-05-08 19:15 | 13.16146 | 48.89232 | 38887 ft | 492 kts | 63° |
| 2026-05-08 19:16 | 13.19442 | 48.95392 | 38890 ft | 492 kts | 63° |
| 2026-05-08 19:16 | 13.22726 | 49.01531 | 38887 ft | 492 kts | 63° |
| 2026-05-08 19:17 | 13.26020 | 49.07694 | 38886 ft | 492 kts | 63° |
| 2026-05-08 19:17 | 13.29314 | 49.13864 | 38887 ft | 492 kts | 63° |
| 2026-05-08 19:18 | 13.32588 | 49.19995 | 38888 ft | 492 kts | 63° |
| 2026-05-08 19:18 | 13.35915 | 49.26156 | 38892 ft | 492 kts | 63° |
| 2026-05-08 19:19 | 13.39235 | 49.32280 | 38892 ft | 492 kts | 63° |
| 2026-05-08 19:19 | 13.42567 | 49.38440 | 38893 ft | 492 kts | 63° |
| 2026-05-08 19:20 | 13.45876 | 49.44570 | 38892 ft | 492 kts | 63° |
| 2026-05-08 19:20 | 13.49198 | 49.50730 | 38889 ft | 492 kts | 63° |
| 2026-05-08 19:21 | 13.52509 | 49.56875 | 38891 ft | 492 kts | 63° |
| 2026-05-08 19:21 | 13.55814 | 49.63011 | 38897 ft | 492 kts | 63° |
| 2026-05-08 19:22 | 13.59135 | 49.69183 | 38895 ft | 492 kts | 63° |
| 2026-05-08 19:22 | 13.62453 | 49.75353 | 38897 ft | 492 kts | 63° |
| 2026-05-08 19:23 | 13.65747 | 49.81484 | 38899 ft | 492 kts | 63° |
| 2026-05-08 19:23 | 13.69058 | 49.87651 | 38895 ft | 492 kts | 63° |
| 2026-05-08 19:24 | 13.72371 | 49.93826 | 38896 ft | 492 kts | 63° |
| 2026-05-08 19:24 | 13.75673 | 49.99987 | 38901 ft | 492 kts | 63° |
| 2026-05-08 19:25 | 13.78971 | 50.06142 | 38900 ft | 492 kts | 63° |
| 2026-05-08 19:25 | 13.82295 | 50.12303 | 38903 ft | 492 kts | 63° |
| 2026-05-08 19:26 | 13.85615 | 50.18427 | 38904 ft | 492 kts | 63° |
| 2026-05-08 19:26 | 13.88932 | 50.24555 | 38905 ft | 492 kts | 63° |
| 2026-05-08 19:27 | 13.92252 | 50.30701 | 38903 ft | 491 kts | 63° |
| 2026-05-08 19:27 | 13.95590 | 50.36889 | 38905 ft | 491 kts | 63° |
| 2026-05-08 19:28 | 13.98891 | 50.43011 | 38907 ft | 491 kts | 63° |
| 2026-05-08 19:28 | 14.02188 | 50.49130 | 38909 ft | 491 kts | 63° |
| 2026-05-08 19:29 | 14.05509 | 50.55301 | 38904 ft | 491 kts | 63° |
| 2026-05-08 19:29 | 14.08811 | 50.61439 | 38910 ft | 491 kts | 63° |
| 2026-05-08 19:30 | 14.12052 | 50.67635 | 38910 ft | 490 kts | 65° |
| 2026-05-08 19:30 | 14.15010 | 50.73987 | 38910 ft | 490 kts | 66° |
| 2026-05-08 19:31 | 14.17903 | 50.80342 | 38911 ft | 490 kts | 66° |
| 2026-05-08 19:31 | 14.20805 | 50.86673 | 38912 ft | 490 kts | 66° |
| 2026-05-08 19:32 | 14.23732 | 50.93021 | 38912 ft | 490 kts | 66° |
| 2026-05-08 19:32 | 14.26657 | 50.99356 | 38908 ft | 490 kts | 66° |
| 2026-05-08 19:33 | 14.29578 | 51.05689 | 38911 ft | 490 kts | 66° |
| 2026-05-08 19:33 | 14.32495 | 51.12022 | 38912 ft | 490 kts | 66° |
| 2026-05-08 19:34 | 14.35414 | 51.18366 | 38912 ft | 490 kts | 66° |
| 2026-05-08 19:34 | 14.38335 | 51.24720 | 38912 ft | 490 kts | 66° |
| 2026-05-08 19:35 | 14.41251 | 51.31068 | 38912 ft | 490 kts | 66° |
| 2026-05-08 19:35 | 14.44163 | 51.37412 | 38914 ft | 490 kts | 66° |
| 2026-05-08 19:36 | 14.47090 | 51.43793 | 38916 ft | 490 kts | 66° |
| 2026-05-08 19:36 | 14.49986 | 51.50113 | 38915 ft | 490 kts | 66° |
| 2026-05-08 19:37 | 14.52905 | 51.56489 | 38912 ft | 490 kts | 66° |
| 2026-05-08 19:37 | 14.55805 | 51.62829 | 38915 ft | 490 kts | 66° |
| 2026-05-08 19:38 | 14.58711 | 51.69186 | 38914 ft | 490 kts | 66° |
| 2026-05-08 19:38 | 14.61621 | 51.75561 | 38918 ft | 490 kts | 66° |
| 2026-05-08 19:39 | 14.64528 | 51.81933 | 38919 ft | 490 kts | 66° |
| 2026-05-08 19:39 | 14.67434 | 51.88301 | 38917 ft | 490 kts | 66° |
| 2026-05-08 19:40 | 14.70367 | 51.94639 | 38916 ft | 490 kts | 66° |
| 2026-05-08 19:40 | 14.73319 | 52.01000 | 38920 ft | 490 kts | 66° |
| 2026-05-08 19:41 | 14.76252 | 52.07339 | 38920 ft | 490 kts | 66° |
| 2026-05-08 19:41 | 14.79182 | 52.13687 | 38916 ft | 490 kts | 66° |
| 2026-05-08 19:42 | 14.82123 | 52.20064 | 38919 ft | 490 kts | 66° |
| 2026-05-08 19:42 | 14.85056 | 52.26428 | 38920 ft | 490 kts | 66° |
| 2026-05-08 19:43 | 14.87973 | 52.32778 | 38918 ft | 490 kts | 66° |
| 2026-05-08 19:43 | 14.90846 | 52.39135 | 38920 ft | 489 kts | 67° |
| 2026-05-08 19:44 | 14.93720 | 52.45520 | 38915 ft | 489 kts | 67° |
| 2026-05-08 19:44 | 14.96593 | 52.51899 | 38920 ft | 489 kts | 67° |
| 2026-05-08 19:45 | 14.99469 | 52.58279 | 38917 ft | 489 kts | 67° |
| 2026-05-08 19:45 | 15.02338 | 52.64649 | 38921 ft | 488 kts | 67° |
| 2026-05-08 19:46 | 15.05208 | 52.71029 | 38918 ft | 488 kts | 67° |
| 2026-05-08 19:46 | 15.09490 | 52.80558 | 38917 ft | 488 kts | 67° |
| 2026-05-08 19:47 | 15.12342 | 52.86911 | 38919 ft | 488 kts | 67° |
| 2026-05-08 19:47 | 15.15191 | 52.93263 | 38919 ft | 487 kts | 67° |
| 2026-05-08 19:48 | 15.18054 | 52.99652 | 38915 ft | 487 kts | 67° |
| 2026-05-08 19:48 | 15.20900 | 53.06009 | 38921 ft | 487 kts | 67° |
| 2026-05-08 19:49 | 15.23747 | 53.12374 | 38917 ft | 487 kts | 67° |
| 2026-05-08 19:49 | 15.26591 | 53.18738 | 38917 ft | 487 kts | 67° |
| 2026-05-08 19:50 | 15.29424 | 53.25082 | 38930 ft | 487 kts | 67° |
| 2026-05-08 19:50 | 15.32262 | 53.31445 | 38916 ft | 487 kts | 67° |
| 2026-05-08 19:51 | 15.35098 | 53.37810 | 38914 ft | 487 kts | 67° |
| 2026-05-08 19:51 | 15.37939 | 53.44192 | 38925 ft | 487 kts | 67° |
| 2026-05-08 19:52 | 15.40764 | 53.50542 | 38930 ft | 487 kts | 67° |
| 2026-05-08 19:52 | 15.44379 | 53.56466 | 38929 ft | 491 kts | 50° |
| 2026-05-08 19:53 | 15.49629 | 53.61012 | 38935 ft | 494 kts | 34° |
| 2026-05-08 19:53 | 15.55469 | 53.64788 | 38909 ft | 495 kts | 33° |
| 2026-05-08 19:54 | 15.61344 | 53.68585 | 38912 ft | 496 kts | 34° |
| 2026-05-08 19:54 | 15.67161 | 53.72439 | 38913 ft | 496 kts | 34° |
| 2026-05-08 19:55 | 15.72929 | 53.76296 | 38928 ft | 496 kts | 34° |
| 2026-05-08 19:55 | 15.78736 | 53.80176 | 38913 ft | 496 kts | 34° |
| 2026-05-08 19:56 | 15.84553 | 53.84062 | 38913 ft | 496 kts | 34° |
| 2026-05-08 19:56 | 15.89382 | 53.87285 | 38928 ft | 496 kts | 34° |
| 2026-05-08 19:57 | 15.95188 | 53.91121 | 38925 ft | 496 kts | 33° |
| 2026-05-08 19:57 | 16.01991 | 53.95600 | 38911 ft | 495 kts | 34° |
| 2026-05-08 19:58 | 16.06823 | 53.98790 | 38911 ft | 495 kts | 34° |
| 2026-05-08 19:58 | 16.12667 | 54.02654 | 38905 ft | 495 kts | 34° |
| 2026-05-08 19:59 | 16.18469 | 54.06495 | 38916 ft | 495 kts | 34° |
| 2026-05-08 19:59 | 16.24266 | 54.10334 | 38914 ft | 494 kts | 33° |
| 2026-05-08 20:00 | 16.30068 | 54.14180 | 38900 ft | 494 kts | 33° |
| 2026-05-08 20:00 | 16.35855 | 54.18018 | 38898 ft | 494 kts | 33° |
| 2026-05-08 20:01 | 16.41658 | 54.21869 | 38892 ft | 494 kts | 33° |
| 2026-05-08 20:01 | 16.47451 | 54.25717 | 38893 ft | 495 kts | 33° |
| 2026-05-08 20:02 | 16.53258 | 54.29578 | 38899 ft | 495 kts | 33° |
| 2026-05-08 20:02 | 16.59062 | 54.33438 | 38899 ft | 495 kts | 33° |
| 2026-05-08 20:03 | 16.64852 | 54.37292 | 38897 ft | 495 kts | 33° |
| 2026-05-08 20:03 | 16.70674 | 54.41171 | 38893 ft | 495 kts | 33° |
| 2026-05-08 20:04 | 16.76465 | 54.45031 | 38891 ft | 495 kts | 33° |
| 2026-05-08 20:04 | 16.82281 | 54.48912 | 38905 ft | 495 kts | 33° |
| 2026-05-08 20:05 | 16.88084 | 54.52786 | 38912 ft | 495 kts | 33° |
| 2026-05-08 20:05 | 16.93873 | 54.56649 | 38916 ft | 495 kts | 33° |
| 2026-05-08 20:06 | 16.99686 | 54.60527 | 38920 ft | 495 kts | 33° |
| 2026-05-08 20:06 | 17.05490 | 54.64403 | 38923 ft | 495 kts | 33° |
| 2026-05-08 20:07 | 17.11285 | 54.68277 | 38920 ft | 495 kts | 33° |
| 2026-05-08 20:07 | 17.17088 | 54.72160 | 38917 ft | 495 kts | 33° |
| 2026-05-08 20:08 | 17.22899 | 54.76051 | 38920 ft | 495 kts | 33° |
| 2026-05-08 20:08 | 17.28671 | 54.79945 | 38919 ft | 495 kts | 35° |
| 2026-05-08 20:09 | 17.34272 | 54.84117 | 38924 ft | 494 kts | 37° |
| 2026-05-08 20:09 | 17.39827 | 54.88384 | 38923 ft | 494 kts | 37° |
| 2026-05-08 20:10 | 17.45400 | 54.92610 | 38938 ft | 494 kts | 37° |
| 2026-05-08 20:10 | 17.50974 | 54.96800 | 38930 ft | 494 kts | 37° |
| 2026-05-08 20:11 | 17.56551 | 55.00990 | 38924 ft | 494 kts | 37° |
| 2026-05-08 20:11 | 17.62137 | 55.05194 | 38911 ft | 494 kts | 37° |
| 2026-05-08 20:12 | 17.67716 | 55.09399 | 38917 ft | 494 kts | 37° |
| 2026-05-08 20:12 | 17.73280 | 55.13595 | 38916 ft | 494 kts | 37° |
| 2026-05-08 20:13 | 17.78870 | 55.17815 | 38900 ft | 494 kts | 37° |
| 2026-05-08 20:13 | 17.84424 | 55.22021 | 38900 ft | 494 kts | 37° |
| 2026-05-08 20:14 | 17.89977 | 55.26232 | 38897 ft | 494 kts | 37° |
| 2026-05-08 20:14 | 17.95544 | 55.30456 | 38897 ft | 494 kts | 37° |
| 2026-05-08 20:15 | 18.01125 | 55.34693 | 38909 ft | 494 kts | 37° |
| 2026-05-08 20:15 | 18.06687 | 55.38920 | 38907 ft | 494 kts | 37° |
| 2026-05-08 20:16 | 18.12358 | 55.43069 | 38910 ft | 495 kts | 33° |
| 2026-05-08 20:16 | 18.18167 | 55.46946 | 38896 ft | 495 kts | 33° |
| 2026-05-08 20:17 | 18.23953 | 55.50832 | 38895 ft | 495 kts | 33° |
| 2026-05-08 20:17 | 18.29721 | 55.54775 | 38890 ft | 495 kts | 33° |
| 2026-05-08 20:18 | 18.35497 | 55.58729 | 38895 ft | 495 kts | 33° |
| 2026-05-08 20:18 | 18.41267 | 55.62685 | 38892 ft | 496 kts | 33° |
| 2026-05-08 20:19 | 18.47057 | 55.66661 | 38891 ft | 496 kts | 33° |
| 2026-05-08 20:19 | 18.52813 | 55.70618 | 38896 ft | 496 kts | 33° |
| 2026-05-08 20:20 | 18.58593 | 55.74594 | 38892 ft | 496 kts | 33° |
| 2026-05-08 20:20 | 18.64367 | 55.78569 | 38890 ft | 496 kts | 33° |
| 2026-05-08 20:21 | 18.70149 | 55.82553 | 38894 ft | 497 kts | 33° |
| 2026-05-08 20:21 | 18.75965 | 55.86564 | 38890 ft | 497 kts | 33° |
| 2026-05-08 20:22 | 18.81714 | 55.90531 | 38890 ft | 497 kts | 33° |
| 2026-05-08 20:22 | 18.86533 | 55.93860 | 38889 ft | 497 kts | 33° |
| 2026-05-08 20:23 | 18.93276 | 55.98522 | 38889 ft | 497 kts | 33° |
| 2026-05-08 20:23 | 18.99141 | 56.02417 | 38881 ft | 497 kts | 30° |
| 2026-05-08 20:24 | 19.05227 | 56.05953 | 38876 ft | 498 kts | 28° |
| 2026-05-08 20:24 | 19.11287 | 56.09409 | 38876 ft | 498 kts | 28° |
| 2026-05-08 20:25 | 19.17381 | 56.12922 | 38872 ft | 498 kts | 29° |
| 2026-05-08 20:25 | 19.23457 | 56.16453 | 38868 ft | 499 kts | 29° |
| 2026-05-08 20:26 | 19.29544 | 56.19999 | 38865 ft | 499 kts | 29° |
| 2026-05-08 20:26 | 19.35627 | 56.23544 | 38865 ft | 499 kts | 29° |
| 2026-05-08 20:27 | 19.41694 | 56.27082 | 38866 ft | 499 kts | 29° |
| 2026-05-08 20:27 | 19.47791 | 56.30639 | 38860 ft | 499 kts | 29° |
| 2026-05-08 20:28 | 19.53854 | 56.34180 | 38861 ft | 499 kts | 29° |
| 2026-05-08 20:28 | 19.59952 | 56.37744 | 38858 ft | 499 kts | 29° |
| 2026-05-08 20:29 | 19.66041 | 56.41307 | 38858 ft | 499 kts | 29° |
| 2026-05-08 20:29 | 19.72133 | 56.44874 | 38854 ft | 499 kts | 29° |
| 2026-05-08 20:30 | 19.78199 | 56.48430 | 38851 ft | 499 kts | 29° |
| 2026-05-08 20:30 | 19.84274 | 56.51997 | 38848 ft | 499 kts | 29° |
| 2026-05-08 20:31 | 19.90236 | 56.55806 | 38849 ft | 499 kts | 32° |
| 2026-05-08 20:31 | 19.96112 | 56.59725 | 38845 ft | 499 kts | 32° |
| 2026-05-08 20:32 | 20.02015 | 56.63613 | 38846 ft | 500 kts | 31° |
| 2026-05-08 20:32 | 20.07942 | 56.67483 | 38843 ft | 500 kts | 31° |
| 2026-05-08 20:33 | 20.13867 | 56.71354 | 38841 ft | 500 kts | 31° |
| 2026-05-08 20:33 | 20.19786 | 56.75229 | 38843 ft | 500 kts | 31° |
| 2026-05-08 20:34 | 20.25715 | 56.79116 | 38841 ft | 500 kts | 31° |
| 2026-05-08 20:35 | 20.34587 | 56.84941 | 38840 ft | 500 kts | 31° |
| 2026-05-08 20:35 | 20.40505 | 56.88832 | 38841 ft | 501 kts | 31° |
| 2026-05-08 20:36 | 20.46433 | 56.92733 | 38843 ft | 501 kts | 31° |
| 2026-05-08 20:36 | 20.52371 | 56.96643 | 38844 ft | 501 kts | 31° |
| 2026-05-08 20:37 | 20.58295 | 57.00548 | 38835 ft | 501 kts | 31° |
| 2026-05-08 20:37 | 20.64216 | 57.04455 | 38835 ft | 501 kts | 31° |
| 2026-05-08 20:38 | 20.70148 | 57.08372 | 38835 ft | 502 kts | 31° |
| 2026-05-08 20:38 | 20.76104 | 57.12309 | 38836 ft | 502 kts | 31° |
| 2026-05-08 20:39 | 20.82019 | 57.16223 | 38837 ft | 502 kts | 31° |
| 2026-05-08 20:39 | 20.87971 | 57.20165 | 38833 ft | 502 kts | 31° |
| 2026-05-08 20:40 | 20.93901 | 57.24096 | 38834 ft | 503 kts | 31° |
| 2026-05-08 20:40 | 20.99864 | 57.28052 | 38830 ft | 503 kts | 31° |
| 2026-05-08 20:41 | 21.05797 | 57.31993 | 38832 ft | 503 kts | 31° |
| 2026-05-08 20:41 | 21.11777 | 57.35969 | 38830 ft | 503 kts | 31° |
| 2026-05-08 20:42 | 21.17728 | 57.39928 | 38832 ft | 504 kts | 31° |
| 2026-05-08 20:42 | 21.23686 | 57.43897 | 38829 ft | 504 kts | 31° |
| 2026-05-08 20:43 | 21.28617 | 57.47184 | 38828 ft | 504 kts | 31° |
| 2026-05-08 20:43 | 21.35567 | 57.51823 | 38830 ft | 504 kts | 31° |
| 2026-05-08 20:44 | 21.40530 | 57.55138 | 38830 ft | 505 kts | 31° |
| 2026-05-08 20:44 | 21.46487 | 57.59121 | 38831 ft | 505 kts | 31° |
| 2026-05-08 20:45 | 21.52450 | 57.63112 | 38827 ft | 505 kts | 31° |
| 2026-05-08 20:45 | 21.58424 | 57.67114 | 38831 ft | 505 kts | 31° |
| 2026-05-08 20:46 | 21.64384 | 57.71104 | 38826 ft | 505 kts | 31° |
| 2026-05-08 20:46 | 21.70334 | 57.75088 | 38829 ft | 505 kts | 31° |
| 2026-05-08 20:47 | 21.76296 | 57.79086 | 38827 ft | 504 kts | 31° |
| 2026-05-08 20:47 | 21.82257 | 57.83088 | 38826 ft | 504 kts | 31° |
| 2026-05-08 20:48 | 21.88174 | 57.87064 | 38823 ft | 504 kts | 31° |
| 2026-05-08 20:48 | 21.94115 | 57.91061 | 38825 ft | 504 kts | 31° |
| 2026-05-08 20:49 | 22.00009 | 57.95030 | 38824 ft | 504 kts | 31° |
| 2026-05-08 20:49 | 22.06029 | 57.99089 | 38826 ft | 504 kts | 31° |
| 2026-05-08 20:50 | 22.12115 | 58.02802 | 38824 ft | 503 kts | 22° |
| 2026-05-08 20:50 | 22.18732 | 58.05058 | 38829 ft | 501 kts | 9° |
| 2026-05-08 20:51 | 22.25616 | 58.06098 | 38813 ft | 498 kts | 6° |
| 2026-05-08 20:51 | 22.29040 | 58.06565 | 38555 ft | 489 kts | 6° |
| 2026-05-08 20:51 | 22.32416 | 58.07031 | 37881 ft | 488 kts | 6° |
| 2026-05-08 20:51 | 22.35787 | 58.07507 | 36915 ft | 493 kts | 6° |
| 2026-05-08 20:52 | 22.39135 | 58.07992 | 35558 ft | 485 kts | 6° |
| 2026-05-08 20:52 | 22.42510 | 58.08489 | 33739 ft | 487 kts | 6° |
| 2026-05-08 20:52 | 22.45901 | 58.08992 | 31618 ft | 491 kts | 7° |
| 2026-05-08 20:52 | 22.49242 | 58.09491 | 29946 ft | 485 kts | 7° |
| 2026-05-08 20:53 | 22.52525 | 58.09984 | 28307 ft | 474 kts | 7° |
| 2026-05-08 20:53 | 22.55719 | 58.10463 | 27701 ft | 443 kts | 7° |
| 2026-05-08 20:53 | 22.58656 | 58.10904 | 27100 ft | 419 kts | 7° |
| 2026-05-08 20:53 | 22.61486 | 58.11327 | 26555 ft | 402 kts | 7° |
| 2026-05-08 20:54 | 22.64301 | 58.11746 | 26046 ft | 412 kts | 7° |
| 2026-05-08 20:54 | 22.67197 | 58.12177 | 25499 ft | 434 kts | 7° |
| 2026-05-08 20:54 | 22.70291 | 58.12637 | 24885 ft | 455 kts | 7° |
| 2026-05-08 20:54 | 22.73420 | 58.13105 | 24258 ft | 457 kts | 7° |
| 2026-05-08 20:55 | 22.76557 | 58.13574 | 23636 ft | 454 kts | 7° |
| 2026-05-08 20:55 | 22.79686 | 58.14042 | 22955 ft | 450 kts | 8° |
| 2026-05-08 20:55 | 22.82798 | 58.14508 | 22305 ft | 445 kts | 8° |
| 2026-05-08 20:55 | 22.85831 | 58.14962 | 21694 ft | 440 kts | 8° |
| 2026-05-08 20:56 | 22.88842 | 58.15413 | 21105 ft | 435 kts | 8° |
| 2026-05-08 20:56 | 22.91842 | 58.15863 | 20535 ft | 431 kts | 8° |
| 2026-05-08 20:56 | 22.94778 | 58.16303 | 19964 ft | 427 kts | 8° |
| 2026-05-08 20:56 | 22.97728 | 58.16745 | 19368 ft | 424 kts | 8° |
| 2026-05-08 20:57 | 23.00629 | 58.17181 | 18798 ft | 421 kts | 9° |
| 2026-05-08 20:57 | 23.03531 | 58.17616 | 18227 ft | 419 kts | 9° |
| 2026-05-08 20:57 | 23.06389 | 58.18046 | 17587 ft | 416 kts | 9° |
| 2026-05-08 20:57 | 23.09262 | 58.18478 | 16989 ft | 412 kts | 9° |
| 2026-05-08 20:58 | 23.12066 | 58.18899 | 16415 ft | 407 kts | 9° |
| 2026-05-08 20:58 | 23.14842 | 58.19315 | 15861 ft | 403 kts | 9° |
| 2026-05-08 20:58 | 23.17614 | 58.19733 | 15325 ft | 398 kts | 9° |
| 2026-05-08 20:58 | 23.20326 | 58.20142 | 14784 ft | 393 kts | 9° |
| 2026-05-08 20:59 | 23.23042 | 58.20551 | 14224 ft | 391 kts | 9° |
| 2026-05-08 20:59 | 23.25707 | 58.20952 | 13699 ft | 387 kts | 10° |
| 2026-05-08 20:59 | 23.28382 | 58.21357 | 13080 ft | 383 kts | 9° |
| 2026-05-08 20:59 | 23.30114 | 58.21618 | 12707 ft | 381 kts | 9° |
| 2026-05-08 21:00 | 23.32596 | 58.21993 | 12173 ft | 376 kts | 9° |
| 2026-05-08 21:00 | 23.35187 | 58.22384 | 11630 ft | 372 kts | 9° |
| 2026-05-08 21:00 | 23.37747 | 58.22770 | 11097 ft | 368 kts | 9° |
| 2026-05-08 21:00 | 23.40279 | 58.23152 | 10601 ft | 363 kts | 9° |
| 2026-05-08 21:01 | 23.42706 | 58.23518 | 10404 ft | 350 kts | 9° |
| 2026-05-08 21:01 | 23.45080 | 58.23876 | 10235 ft | 337 kts | 9° |
| 2026-05-08 21:01 | 23.47362 | 58.24221 | 10079 ft | 324 kts | 9° |
| 2026-05-08 21:01 | 23.49555 | 58.24553 | 9994 ft | 309 kts | 9° |
| 2026-05-08 21:02 | 23.51609 | 58.24864 | 9978 ft | 293 kts | 9° |
| 2026-05-08 21:02 | 23.53590 | 58.25164 | 9840 ft | 282 kts | 9° |
| 2026-05-08 21:02 | 23.55506 | 58.25454 | 9563 ft | 277 kts | 9° |
| 2026-05-08 21:02 | 23.57393 | 58.25796 | 9253 ft | 270 kts | 19° |
| 2026-05-08 21:03 | 23.58969 | 58.26828 | 8975 ft | 268 kts | 47° |
| 2026-05-08 21:03 | 23.59996 | 58.28525 | 8710 ft | 273 kts | 68° |
| 2026-05-08 21:03 | 23.60681 | 58.30503 | 8415 ft | 280 kts | 71° |
| 2026-05-08 21:03 | 23.61341 | 58.32518 | 8104 ft | 282 kts | 71° |
| 2026-05-08 21:04 | 23.61991 | 58.34510 | 7800 ft | 281 kts | 70° |
| 2026-05-08 21:04 | 23.62646 | 58.36508 | 7490 ft | 279 kts | 70° |
| 2026-05-08 21:04 | 23.63304 | 58.38502 | 7189 ft | 279 kts | 70° |
| 2026-05-08 21:04 | 23.63960 | 58.40480 | 6892 ft | 278 kts | 70° |
| 2026-05-08 21:05 | 23.64624 | 58.42476 | 6595 ft | 278 kts | 70° |
| 2026-05-08 21:05 | 23.65282 | 58.44447 | 6282 ft | 279 kts | 70° |
| 2026-05-08 21:05 | 23.65948 | 58.46444 | 5963 ft | 278 kts | 70° |
| 2026-05-08 21:05 | 23.66611 | 58.48429 | 5658 ft | 277 kts | 69° |
| 2026-05-08 21:06 | 23.67264 | 58.50387 | 5350 ft | 276 kts | 69° |
| 2026-05-08 21:06 | 23.67917 | 58.52363 | 5039 ft | 273 kts | 72° |
| 2026-05-08 21:06 | 23.68020 | 58.54367 | 4719 ft | 272 kts | 106° |
| 2026-05-08 21:06 | 23.67021 | 58.56113 | 4445 ft | 273 kts | 141° |
| 2026-05-08 21:07 | 23.65343 | 58.56997 | 4151 ft | 274 kts | 173° |
| 2026-05-08 21:07 | 23.63493 | 58.56819 | 3981 ft | 262 kts | 203° |
| 2026-05-08 21:07 | 23.62063 | 58.55728 | 3844 ft | 243 kts | 234° |
| 2026-05-08 21:07 | 23.61407 | 58.54118 | 3734 ft | 231 kts | 260° |
| 2026-05-08 21:08 | 23.61188 | 58.52356 | 3503 ft | 235 kts | 266° |
| 2026-05-08 21:08 | 23.61060 | 58.50584 | 3339 ft | 231 kts | 267° |
| 2026-05-08 21:08 | 23.60934 | 58.48867 | 3064 ft | 227 kts | 267° |
| 2026-05-08 21:08 | 23.60801 | 58.47156 | 2785 ft | 224 kts | 267° |
| 2026-05-08 21:09 | 23.60670 | 58.45490 | 2512 ft | 221 kts | 267° |
| 2026-05-08 21:09 | 23.60537 | 58.43813 | 2235 ft | 218 kts | 266° |
| 2026-05-08 21:09 | 23.60407 | 58.42197 | 1965 ft | 212 kts | 266° |
| 2026-05-08 21:09 | 23.60283 | 58.40643 | 1690 ft | 195 kts | 266° |
| 2026-05-08 21:10 | 23.60171 | 58.39245 | 1521 ft | 179 kts | 266° |
| 2026-05-08 21:10 | 23.60068 | 58.37951 | 1298 ft | 162 kts | 265° |
| 2026-05-08 21:10 | 23.59976 | 58.36790 | 1108 ft | 143 kts | 264° |
| 2026-05-08 21:10 | 23.59894 | 58.35756 | 946 ft | 138 kts | 263° |
| 2026-05-08 21:11 | 23.59807 | 58.34682 | 792 ft | 143 kts | 264° |
| 2026-05-08 21:11 | 23.59718 | 58.33583 | 577 ft | 145 kts | 263° |
| 2026-05-08 21:11 | 23.59636 | 58.32527 | 426 ft | 139 kts | 264° |
| 2026-05-08 21:11 | 23.59553 | 58.31452 | 243 ft | 142 kts | 262° |
| 2026-05-08 21:12 | 23.59463 | 58.30390 | 90 ft | 141 kts | 263° |
| 2026-05-08 21:12 | 23.59386 | 58.29373 | 49 ft | 123 kts | 265° |
| 2026-05-08 21:12 | 23.59324 | 58.28605 | 48 ft | 79 kts | 265° |
| 2026-05-08 21:12 | 23.59289 | 58.28177 | 49 ft | 34 kts | 265° |
| 2026-05-08 21:13 | 23.59266 | 58.27897 | 47 ft | 39 kts | 264° |
| 2026-05-08 21:13 | 23.59243 | 58.27615 | 49 ft | 37 kts | 265° |
| 2026-05-08 21:13 | 23.59220 | 58.27343 | 48 ft | 35 kts | 265° |
| 2026-05-08 21:13 | 23.59198 | 58.27085 | 50 ft | 33 kts | 264° |
| 2026-05-08 21:14 | 23.59181 | 58.26838 | 49 ft | 33 kts | 266° |
| 2026-05-08 21:14 | 23.59234 | 58.26694 | 49 ft | 16 kts | 347° |
| 2026-05-08 21:14 | 23.59346 | 58.26681 | 49 ft | 19 kts | 355° |
| 2026-05-08 21:14 | 23.59471 | 58.26763 | 49 ft | 20 kts | 85° |
| 2026-05-08 21:15 | 23.59484 | 58.26949 | 49 ft | 29 kts | 84° |
| 2026-05-08 21:15 | 23.59500 | 58.27165 | 49 ft | 29 kts | 85° |
| 2026-05-08 21:15 | 23.59517 | 58.27384 | 49 ft | 29 kts | 84° |
| 2026-05-08 21:15 | 23.59536 | 58.27600 | 49 ft | 29 kts | 84° |
| 2026-05-08 21:16 | 23.59554 | 58.27817 | 49 ft | 29 kts | 85° |
| 2026-05-08 21:16 | 23.59573 | 58.28036 | 49 ft | 29 kts | 85° |
| 2026-05-08 21:16 | 23.59591 | 58.28254 | 49 ft | 29 kts | 85° |
| 2026-05-08 21:16 | 23.59609 | 58.28470 | 49 ft | 29 kts | 85° |
| 2026-05-08 21:17 | 23.59627 | 58.28688 | 49 ft | 29 kts | 85° |
| 2026-05-08 21:17 | 23.59645 | 58.28904 | 49 ft | 29 kts | 85° |
| 2026-05-08 21:17 | 23.59663 | 58.29123 | 49 ft | 29 kts | 85° |
| 2026-05-08 21:17 | 23.59681 | 58.29341 | 49 ft | 29 kts | 85° |
| 2026-05-08 21:18 | 23.59698 | 58.29557 | 49 ft | 29 kts | 85° |
| 2026-05-08 21:18 | 23.59714 | 58.29774 | 49 ft | 29 kts | 86° |
| 2026-05-08 21:18 | 23.59729 | 58.29981 | 49 ft | 18 kts | 71° |
| 2026-05-08 21:18 | 23.59780 | 58.30039 | 49 ft | 7 kts | 26° |
| 2026-05-08 21:19 | 23.59800 | 58.30038 | 49 ft | 3 kts | 353° |
| 2026-05-08 21:19 | 23.59820 | 58.30036 | 49 ft | 1 kts | 353° |